Time;durP1;ratioP1;P1;durP2;ratioP2;P2;SDS_P1;SDS_P2;PMS_P1;PMS_P2;Temp;Humidity;BMP_temperature;BMP_pressure;BME280_temperature;BME280_humidity;BME280_pressure;Samples;Min_cycle;Max_cycle;Signal;HPM_P1;HPM_P2
2022/05/16 00:02:01;;;;;;;8.38;4.15;;;16.30;99.90;;;;;;5104126;28;20119;-64
2022/05/16 00:04:30;;;;;;;6.65;3.95;;;16.30;99.90;;;;;;5098150;28;20182;-64
2022/05/16 00:06:57;;;;;;;6.78;4.40;;;16.30;99.90;;;;;;5096403;28;20044;-64
2022/05/16 00:09:26;;;;;;;8.50;4.00;;;16.20;99.90;;;;;;5110176;28;20436;-65
2022/05/16 00:11:53;;;;;;;11.10;4.50;;;16.20;99.90;;;;;;5109845;28;20081;-65
2022/05/16 00:14:21;;;;;;;8.60;4.70;;;16.20;99.90;;;;;;5101788;28;20044;-64
2022/05/16 00:16:48;;;;;;;12.52;7.22;;;16.20;99.90;;;;;;5103621;28;20039;-65
2022/05/16 00:19:15;;;;;;;11.00;6.10;;;16.20;99.90;;;;;;5104170;27;20411;-65
2022/05/16 00:21:42;;;;;;;11.52;4.82;;;16.10;99.90;;;;;;5109105;28;20387;-65
2022/05/16 00:24:10;;;;;;;10.73;4.72;;;16.20;99.90;;;;;;5109353;28;20048;-65
2022/05/16 00:26:39;;;;;;;9.38;4.68;;;16.10;99.90;;;;;;5097749;28;20043;-65
2022/05/16 00:29:06;;;;;;;8.75;4.15;;;16.10;99.90;;;;;;5103323;28;20395;-65
2022/05/16 00:31:35;;;;;;;9.43;4.75;;;16.10;99.90;;;;;;5109616;28;20138;-65
2022/05/16 00:34:03;;;;;;;11.13;4.63;;;16.00;99.90;;;;;;5110221;28;20055;-65
2022/05/16 00:36:30;;;;;;;7.97;4.53;;;16.00;99.90;;;;;;5100519;28;20040;-65
2022/05/16 00:38:57;;;;;;;9.32;4.53;;;15.90;99.90;;;;;;5108931;28;20522;-65
2022/05/16 00:41:25;;;;;;;9.82;5.05;;;15.90;99.90;;;;;;5108829;28;20048;-65
2022/05/16 00:43:58;;;;;;;8.38;4.60;;;15.90;99.90;;;;;;5098604;28;20039;-64
2022/05/16 00:46:29;;;;;;;8.70;5.00;;;15.90;99.90;;;;;;5107308;28;20036;-64
2022/05/16 00:48:59;;;;;;;7.22;4.70;;;15.80;99.90;;;;;;5109333;28;20398;-65
2022/05/16 00:51:32;;;;;;;10.13;5.18;;;15.70;99.90;;;;;;5108596;28;20085;-64
2022/05/16 00:54:13;;;;;;;8.13;4.68;;;15.70;99.90;;;;;;5099512;28;20108;-66
2022/05/16 00:56:42;;;;;;;8.52;4.68;;;15.70;99.90;;;;;;5096083;28;20090;-64
2022/05/16 00:59:10;;;;;;;6.70;4.50;;;15.60;99.90;;;;;;5101302;28;20386;-65
2022/05/16 01:04:49;;;;;;;9.27;4.57;;;15.50;99.90;;;;;;5049611;28;20391;-64
2022/05/16 01:07:27;;;;;;;10.13;4.88;;;15.50;99.90;;;;;;5081850;28;20052;-65
2022/05/16 01:09:56;;;;;;;7.57;4.68;;;15.50;99.90;;;;;;5085796;28;20040;-64
2022/05/16 01:12:29;;;;;;;8.20;4.40;;;15.50;99.90;;;;;;5085438;28;20199;-64
2022/05/16 01:14:58;;;;;;;10.02;4.78;;;15.40;99.90;;;;;;5084945;28;20044;-64
2022/05/16 01:17:25;;;;;;;9.32;4.28;;;15.40;99.90;;;;;;5086840;28;20054;-65
2022/05/16 01:19:53;;;;;;;8.93;4.28;;;15.40;99.90;;;;;;5088594;28;20267;-64
2022/05/16 01:22:38;;;;;;;8.45;5.07;;;15.40;99.90;;;;;;5081443;28;20435;-64
2022/05/16 01:25:15;;;;;;;7.85;4.70;;;15.30;99.90;;;;;;5080409;28;20043;-64
2022/05/16 01:27:55;;;;;;;7.05;4.57;;;15.30;99.90;;;;;;5082656;28;20040;-64
2022/05/16 01:30:31;;;;;;;7.00;4.65;;;15.30;99.90;;;;;;5083734;28;20044;-64
2022/05/16 01:32:59;;;;;;;8.45;5.05;;;15.30;99.90;;;;;;5085444;28;20127;-65
2022/05/16 01:35:29;;;;;;;9.45;5.10;;;15.30;99.90;;;;;;5077446;28;20046;-65
2022/05/16 01:40:43;;;;;;;8.57;4.47;;;15.30;99.90;;;;;;5086076;28;20055;-65
2022/05/16 01:43:11;;;;;;;7.45;4.53;;;15.30;99.90;;;;;;5107709;28;20122;-65
2022/05/16 01:45:41;;;;;;;8.98;4.45;;;15.30;99.90;;;;;;5107627;28;20036;-65
2022/05/16 01:48:10;;;;;;;12.27;4.75;;;15.30;99.90;;;;;;5109320;28;20132;-65
2022/05/16 01:50:38;;;;;;;8.52;4.88;;;15.30;99.90;;;;;;5111455;28;20588;-65
2022/05/16 01:53:06;;;;;;;8.77;4.85;;;15.30;99.90;;;;;;5110904;28;20490;-65
2022/05/16 01:55:33;;;;;;;8.60;4.30;;;15.30;99.90;;;;;;5094094;28;20059;-65
2022/05/16 01:58:02;;;;;;;7.18;4.28;;;15.20;99.90;;;;;;5104291;28;20054;-65
2022/05/16 02:00:31;;;;;;;7.57;4.80;;;15.30;99.90;;;;;;5105285;28;20052;-65
2022/05/16 02:03:02;;;;;;;8.05;4.45;;;15.30;99.90;;;;;;5088274;28;20521;-65
2022/05/16 02:05:30;;;;;;;13.32;5.60;;;15.20;99.90;;;;;;5088740;28;20052;-65
2022/05/16 02:07:57;;;;;;;8.13;4.32;;;15.20;99.90;;;;;;5088229;28;20134;-65
2022/05/16 02:10:26;;;;;;;9.68;4.80;;;15.20;99.90;;;;;;5102616;28;20051;-65
2022/05/16 02:12:58;;;;;;;9.35;4.97;;;15.20;99.90;;;;;;5089687;28;20047;-65
2022/05/16 02:15:27;;;;;;;;;;;15.20;99.90;;;;;;5088428;28;20071;-64
2022/05/16 02:17:55;;;;;;;9.27;5.45;;;15.20;99.90;;;;;;5100771;28;19931;-64
2022/05/16 02:20:22;;;;;;;9.73;4.97;;;15.10;99.90;;;;;;5092856;28;20076;-64
2022/05/16 02:25:38;;;;;;;8.48;5.38;;;15.00;99.90;;;;;;5086287;28;20040;-64
2022/05/16 02:28:11;;;;;;;8.23;5.00;;;15.00;99.90;;;;;;5104226;28;20524;-64
2022/05/16 02:30:38;;;;;;;10.77;5.78;;;15.00;99.90;;;;;;5108293;28;20452;-65
2022/05/16 02:33:06;;;;;;;12.18;5.50;;;15.00;99.90;;;;;;5106420;28;20052;-65
2022/05/16 02:35:33;;;;;;;8.15;5.60;;;14.90;99.90;;;;;;5105919;28;20035;-64
2022/05/16 02:38:01;;;;;;;9.13;5.68;;;14.90;99.90;;;;;;5107984;28;20049;-65
2022/05/16 02:40:31;;;;;;;13.35;5.82;;;14.80;99.90;;;;;;5095269;28;20039;-65
2022/05/16 02:42:59;;;;;;;11.45;6.13;;;14.80;99.90;;;;;;5106948;28;20852;-64
2022/05/16 02:45:28;;;;;;;9.98;6.30;;;14.80;99.90;;;;;;5094220;28;20039;-64
2022/05/16 02:47:56;;;;;;;10.93;6.13;;;14.80;99.90;;;;;;5093045;28;20586;-64
2022/05/16 02:50:24;;;;;;;9.70;5.95;;;14.70;99.90;;;;;;5095090;28;20039;-64
2022/05/16 02:52:53;;;;;;;9.10;6.50;;;14.70;99.90;;;;;;5102815;28;20044;-65
2022/05/16 02:55:22;;;;;;;13.18;6.72;;;14.70;99.90;;;;;;5104494;28;20126;-65
2022/05/16 02:57:49;;;;;;;10.93;6.72;;;14.60;99.90;;;;;;5111608;28;20039;-65
2022/05/16 03:00:17;;;;;;;10.68;6.20;;;14.60;99.90;;;;;;5109547;28;20130;-65
2022/05/16 03:02:45;;;;;;;12.48;6.18;;;14.60;99.90;;;;;;5097480;28;20046;-64
2022/05/16 03:05:13;;;;;;;11.50;6.55;;;14.50;99.90;;;;;;5102814;28;20039;-65
2022/05/16 03:07:41;;;;;;;11.48;6.45;;;14.50;99.90;;;;;;5090431;28;20516;-65
2022/05/16 03:10:11;;;;;;;11.38;6.80;;;14.50;99.90;;;;;;5091358;28;20050;-65
2022/05/16 03:12:38;;;;;;;10.90;6.82;;;14.60;99.90;;;;;;5091975;28;20142;-65
2022/05/16 03:15:06;;;;;;;10.77;6.20;;;14.60;99.90;;;;;;5091224;28;20051;-64
2022/05/16 03:17:33;;;;;;;12.23;5.90;;;14.60;99.90;;;;;;5089383;28;20109;-65
2022/05/16 03:20:01;;;;;;;10.77;6.10;;;14.50;99.90;;;;;;5098065;28;20040;-64
2022/05/16 03:22:31;;;;;;;9.70;6.13;;;14.50;99.90;;;;;;5091650;28;20044;-65
2022/05/16 03:24:58;;;;;;;12.80;6.30;;;14.50;99.90;;;;;;5111193;28;20558;-65
2022/05/16 03:27:25;;;;;;;19.83;6.25;;;14.50;99.90;;;;;;5092274;28;20126;-64
2022/05/16 03:29:53;;;;;;;12.20;6.13;;;14.50;99.90;;;;;;5109585;28;20126;-64
2022/05/16 03:32:20;;;;;;;9.93;6.13;;;14.50;99.90;;;;;;5110392;28;20096;-64
2022/05/16 03:34:54;;;;;;;9.50;5.95;;;14.50;99.90;;;;;;5111740;28;20051;-64
2022/05/16 03:37:22;;;;;;;7.90;5.78;;;14.40;99.90;;;;;;5108442;28;20044;-65
2022/05/16 03:42:35;;;;;;;12.52;6.95;;;14.40;99.90;;;;;;5105453;28;20044;-65
2022/05/16 03:45:04;;;;;;;12.82;8.75;;;14.40;99.90;;;;;;5103136;28;20669;-64
2022/05/16 03:47:31;;;;;;;12.25;7.50;;;14.50;99.90;;;;;;5111990;28;20134;-64
2022/05/16 03:49:59;;;;;;;15.82;8.43;;;14.60;99.90;;;;;;5106396;28;20367;-64
2022/05/16 03:52:27;;;;;;;16.05;7.55;;;14.60;99.90;;;;;;5101920;28;20434;-65
2022/05/16 03:54:54;;;;;;;11.05;6.68;;;14.70;99.90;;;;;;5107110;28;20048;-65
2022/05/16 03:57:22;;;;;;;11.05;6.00;;;14.70;99.90;;;;;;5104762;28;20040;-65
2022/05/16 03:59:49;;;;;;;11.00;5.93;;;14.80;99.90;;;;;;5104883;28;20043;-64
2022/05/16 04:02:17;;;;;;;12.18;6.60;;;15.00;99.90;;;;;;5092650;28;20127;-65
2022/05/16 04:04:44;;;;;;;15.98;7.30;;;15.00;99.90;;;;;;5090856;28;20063;-66
2022/05/16 04:07:11;;;;;;;11.77;7.32;;;15.10;99.90;;;;;;5094239;28;20738;-65
2022/05/16 04:09:39;;;;;;;15.70;8.95;;;15.20;99.90;;;;;;5089924;28;20481;-64
2022/05/16 04:12:06;;;;;;;11.40;6.57;;;15.20;99.90;;;;;;5088251;28;20186;-64
2022/05/16 04:14:34;;;;;;;10.77;7.32;;;15.40;99.90;;;;;;5089853;28;20050;-65
2022/05/16 04:17:03;;;;;;;15.88;8.23;;;15.50;99.90;;;;;;5089885;28;20052;-64
2022/05/16 04:19:30;;;;;;;11.88;7.88;;;15.60;99.90;;;;;;5101806;28;20036;-65
2022/05/16 04:21:57;;;;;;;11.85;7.13;;;15.70;99.90;;;;;;5097717;28;20044;-64
2022/05/16 04:24:24;;;;;;;11.68;6.75;;;15.90;99.90;;;;;;5107538;28;20482;-64
2022/05/16 04:26:52;;;;;;;13.15;8.02;;;16.00;99.90;;;;;;5101165;28;20051;-64
2022/05/16 04:29:19;;;;;;;14.95;7.45;;;16.10;99.90;;;;;;5107874;27;20053;-65
2022/05/16 04:31:46;;;;;;;16.50;8.98;;;16.20;99.90;;;;;;5106760;28;20498;-65
2022/05/16 04:34:14;;;;;;;15.07;7.97;;;16.40;99.90;;;;;;5097228;28;20044;-65
2022/05/16 04:36:41;;;;;;;13.52;7.15;;;16.50;99.90;;;;;;5109472;28;20127;-65
2022/05/16 04:39:08;;;;;;;12.60;6.68;;;16.50;99.90;;;;;;5108949;28;20053;-64
2022/05/16 04:44:22;;;;;;;11.00;7.18;;;16.60;99.90;;;;;;5092723;28;20625;-64
2022/05/16 04:46:49;;;;;;;16.38;8.82;;;16.70;99.90;;;;;;5098056;28;20044;-64
2022/05/16 04:49:17;;;;;;;12.38;7.45;;;16.90;99.90;;;;;;5101891;28;20044;-64
2022/05/16 04:51:44;;;;;;;14.63;7.63;;;16.90;99.90;;;;;;5100249;28;20610;-65
2022/05/16 04:54:11;;;;;;;12.23;7.90;;;17.00;99.90;;;;;;5103289;28;20130;-65
2022/05/16 04:56:38;;;;;;;14.05;7.18;;;17.20;99.90;;;;;;5102816;28;20051;-64
2022/05/16 04:59:07;;;;;;;14.32;6.53;;;17.30;99.90;;;;;;5107696;28;20039;-64
2022/05/16 05:01:34;;;;;;;13.70;6.97;;;17.50;99.90;;;;;;5088512;28;20040;-64
2022/05/16 05:04:01;;;;;;;11.52;6.00;;;17.50;99.90;;;;;;5095808;28;20120;-64
2022/05/16 05:06:29;;;;;;;14.40;7.75;;;17.70;99.90;;;;;;5106441;28;20561;-64
2022/05/16 05:08:56;;;;;;;11.27;6.70;;;17.80;99.90;;;;;;5097056;28;20079;-65
2022/05/16 05:16:55;;;;;;;15.90;7.78;;;18.00;99.90;;;;;;5108804;28;20051;-64
2022/05/16 05:19:22;;;;;;;13.07;8.63;;;18.10;99.90;;;;;;5101704;28;20036;-65
2022/05/16 05:21:50;;;;;;;23.00;14.40;;;18.10;99.90;;;;;;5098879;28;20059;-65
2022/05/16 05:24:17;;;;;;;18.52;8.70;;;18.20;99.90;;;;;;5103786;28;20533;-65
2022/05/16 05:26:46;;;;;;;10.40;6.57;;;18.40;99.90;;;;;;5100554;28;20040;-64
2022/05/16 05:29:16;;;;;;;10.13;5.80;;;18.40;99.90;;;;;;5089330;28;20046;-64
2022/05/16 05:31:43;;;;;;;11.32;5.65;;;18.50;99.90;;;;;;5099451;28;20342;-65
2022/05/16 05:34:12;;;;;;;11.98;5.68;;;18.50;99.90;;;;;;5109335;28;20060;-65
2022/05/16 05:36:41;;;;;;;10.90;5.00;;;18.50;99.90;;;;;;5091935;28;20131;-65
2022/05/16 05:39:09;;;;;;;12.15;5.88;;;18.70;99.90;;;;;;5090998;28;20052;-64
2022/05/16 05:41:36;;;;;;;11.68;5.78;;;18.70;99.90;;;;;;5089547;28;20036;-64
2022/05/16 05:44:04;;;;;;;17.25;8.52;;;18.70;99.90;;;;;;5092201;28;20509;-64
2022/05/16 05:46:36;;;;;;;11.77;6.93;;;18.80;99.90;;;;;;5108275;28;20043;-65
2022/05/16 05:49:03;;;;;;;;;;;18.90;99.90;;;;;;5094266;28;20048;-66
2022/05/16 05:51:31;;;;;;;11.02;5.28;;;18.90;99.90;;;;;;5101366;27;19924;-65
2022/05/16 05:53:58;;;;;;;13.90;5.63;;;18.90;99.90;;;;;;5095983;28;20103;-65
2022/05/16 05:56:27;;;;;;;15.60;5.65;;;18.90;99.90;;;;;;5101860;28;20348;-65
2022/05/16 05:58:55;;;;;;;12.10;5.82;;;19.00;99.90;;;;;;5097242;27;20390;-64
2022/05/16 06:01:23;;;;;;;10.30;5.82;;;19.10;99.90;;;;;;5087533;28;20129;-65
2022/05/16 06:03:51;;;;;;;10.85;5.63;;;19.30;99.90;;;;;;5091548;28;20050;-66
2022/05/16 06:06:19;;;;;;;10.15;5.32;;;19.30;99.90;;;;;;5089031;28;20032;-65
2022/05/16 06:08:46;;;;;;;10.93;5.32;;;19.40;99.90;;;;;;5099840;28;20207;-65
2022/05/16 06:11:13;;;;;;;10.20;4.50;;;19.50;99.90;;;;;;5103127;28;20043;-64
2022/05/16 06:13:41;;;;;;;9.73;4.97;;;19.60;99.90;;;;;;5096221;28;20035;-64
2022/05/16 06:16:09;;;;;;;11.73;5.60;;;19.80;99.90;;;;;;5094692;28;20407;-64
2022/05/16 06:18:37;;;;;;;14.00;5.40;;;19.90;99.90;;;;;;5091849;28;20510;-65
2022/05/16 06:21:05;;;;;;;14.15;5.57;;;20.00;99.90;;;;;;5095597;27;20047;-65
2022/05/16 06:23:33;;;;;;;9.27;5.07;;;20.20;99.90;;;;;;5089038;28;20067;-64
2022/05/16 06:26:00;;;;;;;10.68;5.20;;;20.10;99.90;;;;;;5101946;28;20043;-64
2022/05/16 06:28:29;;;;;;;10.85;5.40;;;20.10;99.90;;;;;;5090241;28;20495;-65
2022/05/16 06:30:56;;;;;;;13.75;5.10;;;20.10;99.90;;;;;;5095276;28;20138;-64
2022/05/16 06:33:29;;;;;;;10.30;4.78;;;20.20;99.90;;;;;;5109568;28;20486;-64
2022/05/16 06:35:57;;;;;;;10.73;4.70;;;20.20;99.90;;;;;;5102492;28;20043;-64
2022/05/16 06:38:28;;;;;;;12.68;5.05;;;20.30;99.90;;;;;;5102721;28;20035;-65
2022/05/16 06:40:56;;;;;;;14.93;4.70;;;20.20;99.90;;;;;;5097970;28;20039;-64
2022/05/16 06:43:25;;;;;;;11.73;4.80;;;20.20;99.90;;;;;;5101180;28;20092;-65
2022/05/16 06:45:53;;;;;;;17.13;5.20;;;20.30;99.90;;;;;;5097065;28;20093;-63
2022/05/16 06:48:21;;;;;;;9.70;5.32;;;20.30;99.90;;;;;;5110632;28;20441;-64
2022/05/16 06:50:50;;;;;;;12.80;4.80;;;20.30;99.90;;;;;;5098083;28;20122;-64
2022/05/16 06:53:22;;;;;;;14.60;5.22;;;20.40;99.90;;;;;;5100647;28;20458;-64
2022/05/16 06:55:49;;;;;;;11.18;5.07;;;20.40;99.90;;;;;;5102529;28;20487;-64
2022/05/16 06:58:17;;;;;;;8.45;4.50;;;20.50;99.90;;;;;;5103932;28;20040;-65
2022/05/16 07:00:44;;;;;;;10.60;4.75;;;20.60;99.90;;;;;;5097505;28;20039;-64
2022/05/16 07:03:12;;;;;;;13.52;4.75;;;20.70;99.90;;;;;;5101113;28;20420;-65
2022/05/16 07:05:48;;;;;;;7.43;3.83;;;20.70;99.90;;;;;;5094940;28;20447;-65
2022/05/16 07:08:20;;;;;;;8.30;4.18;;;20.80;99.90;;;;;;5101051;28;20044;-65
2022/05/16 07:10:50;;;;;;;10.40;4.15;;;20.90;99.90;;;;;;5102118;28;20473;-63
2022/05/16 07:13:23;;;;;;;12.15;4.28;;;21.00;99.90;;;;;;5111843;28;20491;-65
2022/05/16 07:15:52;;;;;;;7.07;3.30;;;21.10;99.90;;;;;;5099254;28;20101;-65
2022/05/16 07:18:19;;;;;;;8.63;4.05;;;21.10;99.90;;;;;;5111978;28;20054;-65
2022/05/16 07:20:47;;;;;;;13.23;4.10;;;21.20;99.90;;;;;;5113201;27;20482;-65
2022/05/16 07:23:15;;;;;;;10.77;4.20;;;21.30;99.90;;;;;;5097576;28;20048;-65
2022/05/16 07:28:28;;;;;;;7.78;3.75;;;21.50;99.90;;;;;;5099410;28;20048;-66
2022/05/16 07:30:55;;;;;;;10.27;4.55;;;21.50;99.90;;;;;;5111757;28;20130;-66
2022/05/16 07:33:23;;;;;;;9.45;4.20;;;21.60;99.90;;;;;;5107136;27;20043;-65
2022/05/16 07:35:52;;;;;;;8.93;4.43;;;21.90;99.90;;;;;;5097339;28;20046;-65
2022/05/16 07:38:20;;;;;;;8.95;4.40;;;22.00;99.90;;;;;;5100092;27;20044;-65
2022/05/16 07:40:49;;;;;;;8.63;3.58;;;22.10;99.90;;;;;;5093460;28;20082;-65
2022/05/16 07:43:17;;;;;;;9.85;4.00;;;22.20;99.90;;;;;;5095312;28;20052;-67
2022/05/16 07:45:46;;;;;;;6.72;3.70;;;22.40;99.90;;;;;;5103329;28;20032;-65
2022/05/16 07:48:15;;;;;;;6.47;3.83;;;22.50;99.90;;;;;;5109437;28;20097;-64
2022/05/16 07:50:44;;;;;;;8.95;3.67;;;22.60;99.90;;;;;;5108831;28;20124;-65
2022/05/16 07:53:12;;;;;;;7.32;3.30;;;22.80;99.90;;;;;;5101674;28;20051;-65
2022/05/16 07:55:45;;;;;;;8.43;3.70;;;22.90;99.90;;;;;;5103899;27;20509;-65
2022/05/16 07:58:12;;;;;;;10.02;4.07;;;22.90;99.90;;;;;;5096748;27;20035;-66
2022/05/16 08:00:40;;;;;;;6.18;3.60;;;23.00;99.90;;;;;;5095432;28;20370;-64
2022/05/16 08:03:13;;;;;;;5.55;3.28;;;23.10;99.90;;;;;;5095238;28;20495;-64
2022/05/16 08:05:42;;;;;;;8.23;3.78;;;23.30;99.90;;;;;;5100133;27;20124;-65
2022/05/16 08:10:59;;;;;;;9.20;3.83;;;23.60;99.90;;;;;;5110888;28;20047;-64
2022/05/16 08:13:28;;;;;;;6.60;3.47;;;23.70;99.90;;;;;;5111114;27;20039;-64
2022/05/16 08:15:57;;;;;;;8.45;3.95;;;23.90;99.90;;;;;;5100125;28;20040;-64
2022/05/16 08:18:24;;;;;;;8.82;3.70;;;24.20;99.90;;;;;;5111065;28;20048;-64
2022/05/16 08:20:53;;;;;;;7.07;3.42;;;24.20;99.90;;;;;;5107994;27;20032;-64
2022/05/16 08:23:28;;;;;;;8.93;3.63;;;24.40;99.90;;;;;;5099929;28;20059;-65
2022/05/16 08:25:59;;;;;;;8.68;3.50;;;24.50;99.90;;;;;;5092058;28;20043;-65
2022/05/16 08:28:26;;;;;;;10.27;4.67;;;24.50;99.90;;;;;;5108920;28;20073;-66
2022/05/16 08:30:54;;;;;;;7.00;3.72;;;24.60;99.90;;;;;;5104700;28;20134;-65
2022/05/16 08:33:21;;;;;;;5.68;3.17;;;24.70;99.90;;;;;;5107171;28;20098;-64
2022/05/16 08:39:52;;;;;;;5.55;2.88;;;24.90;99.90;;;;;;5098083;28;20035;-64
2022/05/16 08:41:32;;;;;;;12.10;3.47;;;25.30;99.90;;;;;;5096794;28;20100;-63
2022/05/16 08:44:21;;;;;;;6.22;3.20;;;25.40;99.90;;;;;;5098573;28;20036;-64
2022/05/16 08:47:15;;;;;;;7.68;3.13;;;25.50;99.90;;;;;;5105738;28;20042;-64
2022/05/16 08:49:51;;;;;;;8.20;3.00;;;25.30;99.90;;;;;;5072174;28;20079;-64
2022/05/16 08:52:47;;;;;;;7.10;3.22;;;25.40;99.90;;;;;;5091773;28;20047;-66
2022/05/16 08:55:35;;;;;;;5.30;3.35;;;25.50;99.90;;;;;;5095527;28;20474;-64
2022/05/16 08:58:30;;;;;;;7.65;3.10;;;25.20;99.90;;;;;;5100356;27;20458;-65
2022/05/16 09:01:05;;;;;;;7.03;3.30;;;25.10;99.90;;;;;;5096475;28;20120;-65
2022/05/16 09:03:53;;;;;;;8.45;4.00;;;24.90;99.90;;;;;;5087870;28;20106;-65
2022/05/16 09:06:34;;;;;;;9.30;3.83;;;24.90;99.90;;;;;;5092113;28;20387;-65
2022/05/16 09:09:14;;;;;;;8.93;3.97;;;24.90;99.90;;;;;;5105078;27;20054;-65
2022/05/16 09:12:00;;;;;;;8.75;3.50;;;24.90;99.90;;;;;;5091511;27;20078;-64
2022/05/16 09:15:20;;;;;;;6.28;3.47;;;24.70;99.90;;;;;;5100807;28;20055;-65
2022/05/16 09:18:22;;;;;;;8.40;3.45;;;24.20;99.90;;;;;;5069187;28;20049;-65
2022/05/16 09:21:17;;;;;;;6.07;3.08;;;23.90;99.90;;;;;;5106585;27;20047;-65
2022/05/16 09:23:47;;;;;;;5.72;3.65;;;23.60;99.90;;;;;;5111888;27;20035;-65
2022/05/16 09:26:17;;;;;;;7.93;3.40;;;23.50;99.90;;;;;;5109588;28;20670;-65
2022/05/16 09:28:57;;;;;;;9.00;4.10;;;23.30;99.90;;;;;;5106781;27;20121;-65
2022/05/16 09:31:40;;;;;;;7.25;3.35;;;23.10;99.90;;;;;;5110233;28;20135;-65
2022/05/16 09:34:09;;;;;;;10.05;3.70;;;23.00;99.90;;;;;;5108726;28;20047;-65
2022/05/16 09:36:42;;;;;;;7.35;3.35;;;22.70;99.90;;;;;;5108048;28;20915;-65
2022/05/16 09:39:17;;;;;;;7.10;3.08;;;22.20;99.90;;;;;;5105771;28;20122;-65
2022/05/16 09:42:04;;;;;;;9.68;4.07;;;21.90;99.90;;;;;;5113805;27;20597;-65
2022/05/16 09:45:06;;;;;;;7.63;3.63;;;21.30;99.90;;;;;;5105413;28;20036;-65
2022/05/16 09:47:36;;;;;;;6.65;3.75;;;21.20;99.90;;;;;;5108785;28;20057;-66
2022/05/16 09:50:20;;;;;;;7.25;3.92;;;21.20;99.90;;;;;;5104454;28;20055;-64
2022/05/16 09:52:51;;;;;;;7.35;3.85;;;21.20;99.90;;;;;;5105550;28;20757;-65
2022/05/16 09:55:33;;;;;;;10.95;3.83;;;21.30;99.90;;;;;;5101982;28;20044;-64
2022/05/16 09:58:12;;;;;;;8.90;4.30;;;21.40;99.90;;;;;;5104037;28;20040;-64
2022/05/16 10:00:49;;;;;;;8.63;4.22;;;21.60;99.90;;;;;;5103648;28;20274;-65
2022/05/16 10:03:46;;;;;;;9.90;4.40;;;22.00;99.90;;;;;;5087150;28;20147;-65
2022/05/16 10:06:37;;;;;;;10.27;4.30;;;22.30;99.90;;;;;;5095743;28;20044;-66
2022/05/16 10:09:10;;;;;;;9.07;4.45;;;22.60;99.90;;;;;;5097444;28;20395;-66
2022/05/16 10:11:38;;;;;;;7.05;4.30;;;22.80;99.90;;;;;;5105054;28;20093;-66
2022/05/16 10:14:09;;;;;;;;;;;22.70;99.90;;;;;;5100381;28;20048;-66
2022/05/16 10:16:42;;;;;;;8.38;4.55;;;22.80;99.90;;;;;;5107958;28;19954;-66
2022/05/16 10:19:15;;;;;;;10.23;5.13;;;22.60;99.90;;;;;;5109014;28;20058;-65
2022/05/16 10:22:13;;;;;;;7.75;4.38;;;22.60;99.90;;;;;;5115315;27;20040;-65
2022/05/16 10:24:52;;;;;;;8.82;4.55;;;22.70;99.90;;;;;;5107750;28;20098;-65
2022/05/16 10:27:32;;;;;;;8.15;4.10;;;22.80;99.90;;;;;;5101779;28;20097;-65
2022/05/16 10:30:05;;;;;;;7.18;3.97;;;23.10;99.90;;;;;;5102290;28;20429;-65
2022/05/16 10:35:33;;;;;;;7.55;4.30;;;23.10;99.90;;;;;;5099828;28;20039;-65
2022/05/16 10:38:07;;;;;;;7.00;4.03;;;23.20;99.90;;;;;;5107725;28;20462;-66
2022/05/16 10:40:45;;;;;;;8.20;3.72;;;23.50;99.90;;;;;;5105134;28;20665;-66
2022/05/16 10:43:31;;;;;;;8.82;4.20;;;23.50;99.90;;;;;;5096795;28;20521;-66
2022/05/16 10:46:08;;;;;;;7.13;3.65;;;23.30;99.90;;;;;;5101829;28;20413;-65
2022/05/16 10:48:42;;;;;;;8.02;3.38;;;23.60;99.90;;;;;;5092210;28;20435;-66
2022/05/16 10:51:37;;;;;;;7.57;4.13;;;23.80;99.90;;;;;;5103258;28;20040;-65
2022/05/16 10:54:20;;;;;;;6.57;3.72;;;24.20;99.90;;;;;;5098643;28;20047;-66
2022/05/16 10:57:04;;;;;;;8.20;3.60;;;24.60;99.90;;;;;;5093028;28;20047;-65
2022/05/16 10:59:51;;;;;;;6.85;3.75;;;25.30;99.90;;;;;;5107592;28;20039;-66
2022/05/16 11:02:43;;;;;;;8.77;4.32;;;25.50;99.90;;;;;;5087315;28;20118;-66
2022/05/16 11:05:24;;;;;;;6.90;3.72;;;25.80;99.90;;;;;;4901489;28;20084;-65
2022/05/16 11:08:12;;;;;;;9.73;4.55;;;26.00;99.90;;;;;;5020995;28;20137;-66
2022/05/16 11:10:52;;;;;;;9.63;4.07;;;26.20;99.90;;;;;;5025254;28;20567;-66
2022/05/16 11:13:47;;;;;;;8.95;4.20;;;26.30;99.90;;;;;;5023129;28;20053;-66
2022/05/16 11:16:24;;;;;;;6.47;4.03;;;26.60;99.90;;;;;;5023542;28;20044;-66
2022/05/16 11:19:30;;;;;;;7.78;4.10;;;26.80;99.90;;;;;;5022543;28;20413;-65
2022/05/16 11:22:07;;;;;;;8.85;3.80;;;27.10;99.90;;;;;;5046675;28;20041;-64
2022/05/16 11:24:57;;;;;;;8.48;3.50;;;27.40;99.90;;;;;;5031323;28;20045;-64
2022/05/16 11:27:53;;;;;;;6.45;3.55;;;27.90;99.90;;;;;;5019746;28;20500;-65
2022/05/16 11:30:33;;;;;;;10.73;3.70;;;27.80;99.90;;;;;;5031443;28;20046;-64
2022/05/16 11:33:09;;;;;;;9.65;3.83;;;27.80;99.90;;;;;;5035793;28;20752;-65
2022/05/16 11:35:46;;;;;;;9.75;3.20;;;27.60;99.90;;;;;;5025894;28;20053;-65
2022/05/16 11:38:43;;;;;;;6.70;3.55;;;27.30;99.90;;;;;;5025590;28;20038;-66
2022/05/16 11:41:35;;;;;;;6.50;3.50;;;26.90;99.90;;;;;;5026609;28;20592;-67
2022/05/16 11:44:31;;;;;;;9.18;3.65;;;26.60;99.90;;;;;;5028237;28;20052;-65
2022/05/16 11:47:25;;;;;;;6.97;3.47;;;26.90;99.90;;;;;;5029157;28;20038;-65
2022/05/16 11:50:18;;;;;;;7.15;3.53;;;28.40;99.90;;;;;;5023432;28;20037;-66
2022/05/16 11:53:26;;;;;;;7.50;3.40;;;28.90;99.90;;;;;;5024130;28;20096;-65
2022/05/16 12:01:39;;;;;;;7.65;3.20;;;28.70;99.90;;;;;;5029930;28;20556;-65
2022/05/16 12:04:22;;;;;;;8.38;3.58;;;28.40;99.90;;;;;;5025889;28;20096;-64
2022/05/16 12:06:59;;;;;;;6.47;3.75;;;28.90;99.90;;;;;;5026469;28;20092;-66
2022/05/16 12:09:31;;;;;;;8.20;3.85;;;29.00;99.90;;;;;;5028957;28;20057;-64
2022/05/16 12:12:11;;;;;;;9.30;3.83;;;28.70;99.90;;;;;;5029568;28;20132;-65
2022/05/16 12:14:42;;;;;;;7.25;3.50;;;29.20;99.90;;;;;;5027428;28;20080;-66
2022/05/16 12:17:18;;;;;;;9.30;3.60;;;28.90;99.90;;;;;;5026027;28;20037;-65
2022/05/16 12:19:53;;;;;;;8.43;3.08;;;28.60;99.90;;;;;;5030754;28;20455;-65
2022/05/16 12:22:29;;;;;;;8.73;3.40;;;28.80;99.90;;;;;;5028471;28;20100;-65
2022/05/16 12:25:08;;;;;;;7.55;3.65;;;28.50;99.90;;;;;;5024881;28;20050;-65
2022/05/16 12:27:38;;;;;;;6.70;3.33;;;28.80;99.90;;;;;;5027922;28;20432;-65
2022/05/16 12:30:15;;;;;;;5.90;3.05;;;28.90;99.90;;;;;;5026276;28;20045;-65
2022/05/16 12:32:51;;;;;;;5.85;3.10;;;28.90;99.90;;;;;;5022777;28;20520;-66
2022/05/16 12:35:27;;;;;;;5.82;3.40;;;28.80;99.90;;;;;;5021089;28;20037;-65
2022/05/16 12:37:55;;;;;;;6.45;2.83;;;28.10;99.90;;;;;;5028309;28;20042;-66
2022/05/16 12:40:36;;;;;;;6.85;3.40;;;28.30;99.90;;;;;;5027118;28;20052;-65
2022/05/16 12:43:23;;;;;;;5.90;2.92;;;28.30;99.90;;;;;;5028883;28;20041;-65
2022/05/16 12:46:11;;;;;;;6.93;3.00;;;28.20;99.90;;;;;;5026655;28;20519;-66
2022/05/16 12:48:56;;;;;;;6.70;3.13;;;27.90;99.90;;;;;;5028454;28;20046;-65
2022/05/16 12:51:35;;;;;;;5.57;3.03;;;28.20;99.90;;;;;;5028084;28;20927;-65
2022/05/16 12:54:15;;;;;;;4.65;2.75;;;28.50;99.90;;;;;;5028948;28;20045;-65
2022/05/16 12:56:56;;;;;;;5.93;2.60;;;28.30;99.90;;;;;;5027566;28;20042;-65
2022/05/16 12:59:47;;;;;;;7.40;3.40;;;28.90;99.90;;;;;;5027755;28;20049;-64
2022/05/16 13:02:41;;;;;;;6.25;3.25;;;29.20;99.90;;;;;;5022374;28;20522;-64
2022/05/16 13:05:24;;;;;;;6.55;2.95;;;29.50;99.90;;;;;;5024541;28;20042;-64
2022/05/16 13:08:18;;;;;;;6.95;3.10;;;30.30;99.90;;;;;;5018589;28;20121;-65
2022/05/16 13:11:26;;;;;;;7.25;3.40;;;30.80;99.90;;;;;;5030449;28;20049;-66
2022/05/16 13:13:56;;;;;;;6.03;2.95;;;31.60;99.90;;;;;;5027696;28;20133;-64
2022/05/16 13:16:49;;;;;;;7.70;3.50;;;31.80;99.90;;;;;;5025531;28;20041;-64
2022/05/16 13:19:18;;;;;;;7.70;3.35;;;31.00;99.90;;;;;;5021975;28;20129;-67
2022/05/16 13:21:53;;;;;;;5.28;3.33;;;30.20;99.90;;;;;;5021859;28;20064;-68
2022/05/16 13:24:23;;;;;;;7.43;3.70;;;29.50;99.90;;;;;;5020332;28;20038;-66
2022/05/16 13:30:07;;;;;;;7.80;4.30;;;28.20;99.90;;;;;;5028402;28;20508;-65
2022/05/16 13:32:35;;;;;;;7.50;4.00;;;27.40;99.90;;;;;;5028210;28;20072;-66
2022/05/16 13:35:09;;;;;;;5.80;3.85;;;27.30;99.90;;;;;;5027467;28;20049;-66
2022/05/16 13:37:56;;;;;;;11.48;4.45;;;27.70;99.90;;;;;;5020714;28;20045;-67
2022/05/16 13:40:38;;;;;;;6.22;4.35;;;27.60;99.90;;;;;;5025772;28;20037;-66
2022/05/16 13:43:21;;;;;;;6.25;3.63;;;27.00;99.90;;;;;;5041426;28;20114;-68
2022/05/16 13:45:59;;;;;;;8.35;3.97;;;26.90;99.90;;;;;;5018331;28;20046;-66
2022/05/16 13:48:28;;;;;;;6.38;4.05;;;26.20;99.90;;;;;;5029228;28;20384;-68
2022/05/16 13:50:59;;;;;;;12.02;4.80;;;25.50;99.90;;;;;;5026983;28;20516;-66
2022/05/16 13:53:28;;;;;;;8.52;4.50;;;25.20;99.90;;;;;;5019981;28;20117;-70
2022/05/16 13:55:57;;;;;;;7.78;4.10;;;24.80;99.90;;;;;;5028352;28;20042;-66